createdAt,value
2022-07-30T00:02:52.148Z,27.35
2022-07-30T00:07:54.684Z,27.52
2022-07-30T00:12:57.836Z,27.42
2022-07-30T00:18:00.191Z,27.63
2022-07-30T00:23:05.993Z,27.28
2022-07-30T00:28:08.609Z,27.06
2022-07-30T00:33:10.958Z,27.23
2022-07-30T00:38:13.345Z,27.05
2022-07-30T00:43:17.265Z,26.87
2022-07-30T00:48:19.822Z,27.02
2022-07-30T00:53:22.215Z,26.84
2022-07-30T00:58:24.748Z,26.92
2022-07-30T01:03:27.143Z,26.67
2022-07-30T01:08:29.519Z,26.62
2022-07-30T01:13:31.897Z,26.69
2022-07-30T01:19:01.644Z,26.48
2022-07-30T01:24:35.500Z,26.68
2022-07-30T01:29:40.424Z,26.52
2022-07-30T01:34:45.954Z,26.68
2022-07-30T01:39:50.236Z,26.74
2022-07-30T01:44:52.982Z,26.34
2022-07-30T01:49:56.997Z,26.70
2022-07-30T01:55:01.562Z,26.52
2022-07-30T02:00:07.372Z,26.30
2022-07-30T02:05:10.176Z,26.21
2022-07-30T02:10:18.347Z,25.60
2022-07-30T02:15:27.883Z,25.54
2022-07-30T02:20:33.467Z,25.27
2022-07-30T02:25:42.915Z,25.82
2022-07-30T02:30:50.336Z,26.28
2022-07-30T02:35:56.749Z,26.45
2022-07-30T02:41:02.473Z,26.52
2022-07-30T02:46:06.059Z,26.11
2022-07-30T02:51:11.030Z,25.84
2022-07-30T02:56:16.599Z,25.96
2022-07-30T03:01:22.308Z,26.63
2022-07-30T03:06:26.723Z,26.57
2022-07-30T03:11:31.266Z,26.31
2022-07-30T03:16:37.504Z,26.34
2022-07-30T03:21:42.897Z,26.46
2022-07-30T03:26:47.640Z,26.51
2022-07-30T03:31:50.671Z,26.24
2022-07-30T03:36:54.682Z,26.55
2022-07-30T03:41:57.383Z,26.47
2022-07-30T03:47:01.334Z,26.49
2022-07-30T03:52:05.087Z,26.63
2022-07-30T03:57:07.625Z,26.55
2022-07-30T04:02:10.593Z,26.46
2022-07-30T04:07:13.073Z,26.60
2022-07-30T04:12:15.595Z,26.36
2022-07-30T04:17:30.651Z,26.37
2022-07-30T04:22:53.410Z,26.36
2022-07-30T04:28:01.907Z,26.32
2022-07-30T04:33:07.033Z,26.39
2022-07-30T04:38:11.036Z,26.09
2022-07-30T04:43:13.600Z,26.42
2022-07-30T04:48:16.087Z,26.62
2022-07-30T04:53:20.327Z,26.66
2022-07-30T04:58:24.179Z,26.62
2022-07-30T05:03:27.342Z,26.61
2022-07-30T05:08:31.291Z,26.57
2022-07-30T05:13:34.810Z,26.74
2022-07-30T05:18:41.166Z,26.75
2022-07-30T05:23:50.054Z,26.74
2022-07-30T05:28:56.621Z,27.00
2022-07-30T05:34:03.037Z,27.00
2022-07-30T05:39:06.129Z,27.11
2022-07-30T05:44:08.893Z,27.24
2022-07-30T05:49:11.412Z,27.39
2022-07-30T05:54:13.827Z,27.51
2022-07-30T05:59:16.219Z,27.55
2022-07-30T06:04:18.644Z,27.80
2022-07-30T06:09:27.332Z,27.90
2022-07-30T06:14:39.080Z,28.17
2022-07-30T06:19:41.447Z,27.96
2022-07-30T06:24:43.851Z,27.84
2022-07-30T06:29:46.190Z,28.26
2022-07-30T06:34:55.143Z,28.30
2022-07-30T06:40:02.257Z,28.46
2022-07-30T06:50:42.411Z,28.90
2022-07-30T06:55:44.850Z,29.06
2022-07-30T07:00:47.258Z,29.36
2022-07-30T07:05:49.683Z,29.68
2022-07-30T07:10:52.257Z,29.71
2022-07-30T07:15:54.660Z,30.04
2022-07-30T07:20:57.022Z,30.12
2022-07-30T07:25:59.481Z,30.32
2022-07-30T07:31:01.909Z,30.43
2022-07-30T07:36:04.863Z,30.51
2022-07-30T07:41:07.284Z,30.63
2022-07-30T07:46:10.166Z,30.79
2022-07-30T07:51:12.658Z,30.85
2022-07-30T07:56:15.008Z,30.98
2022-07-30T08:01:17.862Z,30.92
2022-07-30T08:06:20.416Z,31.05
2022-07-30T08:11:22.864Z,31.27
2022-07-30T08:16:25.624Z,31.26
2022-07-30T08:21:28.039Z,31.45
2022-07-30T08:26:30.506Z,31.64
2022-07-30T08:31:33.834Z,31.88
2022-07-30T08:36:36.237Z,31.97
2022-07-30T08:41:38.715Z,32.08
2022-07-30T08:46:47.069Z,32.18
2022-07-30T08:51:51.714Z,31.97
2022-07-30T08:56:55.015Z,32.20
2022-07-30T09:02:10.332Z,32.20
2022-07-30T09:07:14.947Z,32.20
2022-07-30T09:12:41.620Z,32.21
2022-07-30T09:17:49.472Z,32.42
2022-07-30T09:22:54.550Z,32.42
2022-07-30T09:27:57.288Z,32.37
2022-07-30T09:33:00.293Z,32.70
2022-07-30T09:38:06.612Z,32.82
2022-07-30T09:43:12.469Z,33.04
2022-07-30T09:48:23.101Z,33.32
2022-07-30T09:53:25.757Z,33.48
2022-07-30T09:58:45.489Z,33.48
2022-07-30T10:03:49.442Z,33.64
2022-07-30T10:08:52.412Z,33.57
2022-07-30T10:13:57.231Z,33.77
2022-07-30T10:19:01.168Z,34.00
2022-07-30T10:24:04.754Z,33.18
2022-07-30T10:29:12.782Z,33.73
2022-07-30T10:34:23.624Z,33.28
2022-07-30T10:39:33.049Z,33.41
2022-07-30T10:45:17.182Z,34.50
2022-07-30T10:50:27.203Z,34.48
2022-07-30T10:55:36.550Z,34.79
2022-07-30T11:00:52.087Z,34.93
2022-07-30T11:06:24.322Z,34.98
2022-07-30T11:12:02.090Z,35.19
2022-07-30T11:16:53.608Z,35.16
2022-07-30T11:22:28.796Z,35.38
2022-07-30T11:27:45.486Z,35.41
2022-07-30T11:32:49.231Z,35.31
2022-07-30T11:38:04.312Z,35.62
2022-07-30T11:43:35.900Z,35.78
2022-07-30T11:48:42.370Z,35.83
2022-07-30T11:53:46.520Z,35.91
2022-07-30T11:58:50.250Z,35.99
2022-07-30T12:03:52.851Z,36.11
2022-07-30T12:08:58.726Z,35.94
2022-07-30T12:14:02.635Z,36.15
2022-07-30T12:19:06.678Z,36.04
2022-07-30T12:24:12.194Z,36.14
2022-07-30T12:29:24.619Z,36.33
2022-07-30T12:34:28.378Z,36.39
2022-07-30T12:39:31.878Z,36.50
2022-07-30T12:44:35.173Z,36.83
2022-07-30T12:49:48.648Z,36.49
2022-07-30T12:55:18.414Z,36.70
2022-07-30T13:00:23.542Z,36.88
2022-07-30T13:05:48.719Z,37.22
2022-07-30T13:11:00.426Z,37.25
2022-07-30T13:16:05.776Z,37.30
2022-07-30T13:21:11.855Z,37.18
2022-07-30T13:26:14.267Z,37.35
2022-07-30T13:31:16.618Z,37.55
2022-07-30T13:36:19.161Z,37.49
2022-07-30T13:41:21.995Z,37.70
2022-07-30T13:46:24.424Z,37.71
2022-07-30T13:51:27.040Z,37.76
2022-07-30T13:56:32.523Z,38.06
2022-07-30T14:01:36.446Z,38.27
2022-07-30T14:06:38.837Z,38.10
2022-07-30T14:11:41.255Z,38.45
2022-07-30T14:16:45.604Z,38.70
2022-07-30T14:21:48.189Z,38.77
2022-07-30T14:26:54.568Z,38.95
2022-07-30T14:32:01.113Z,39.12
2022-07-30T14:37:03.817Z,39.24
2022-07-30T14:42:06.922Z,39.44
2022-07-30T14:47:09.621Z,39.63
2022-07-30T14:52:12.008Z,39.84
2022-07-30T14:57:14.431Z,40.08
2022-07-30T15:02:16.789Z,40.26
2022-07-30T15:07:19.277Z,40.14
2022-07-30T15:12:26.607Z,40.61
2022-07-30T15:17:29.647Z,41.02
2022-07-30T15:22:31.998Z,41.30
2022-07-30T15:27:34.785Z,41.76
2022-07-30T15:32:37.692Z,41.96
2022-07-30T15:37:40.074Z,42.07
2022-07-30T15:42:45.966Z,42.47
2022-07-30T15:47:48.112Z,42.74
2022-07-30T15:52:50.908Z,42.99
2022-07-30T15:57:53.356Z,42.82
2022-07-30T16:02:56.749Z,42.50
2022-07-30T16:07:59.995Z,42.52
2022-07-30T16:13:04.130Z,41.95
2022-07-30T16:18:06.902Z,41.83
2022-07-30T16:23:13.369Z,41.10
2022-07-30T16:28:19.119Z,40.76
2022-07-30T16:33:21.467Z,40.41
2022-07-30T16:38:24.008Z,39.86
2022-07-30T16:43:26.422Z,38.67
2022-07-30T16:48:29.211Z,38.47
2022-07-30T16:53:31.639Z,37.98
2022-07-30T16:58:34.244Z,37.10
2022-07-30T17:03:36.872Z,36.38
2022-07-30T17:08:39.241Z,35.69
2022-07-30T17:13:41.624Z,35.40
2022-07-30T17:18:44.436Z,35.25
2022-07-30T17:23:46.844Z,34.84
2022-07-30T17:28:49.645Z,34.51
2022-07-30T17:33:52.276Z,34.36
2022-07-30T17:38:54.635Z,33.91
2022-07-30T17:43:57.272Z,33.88
2022-07-30T17:48:59.798Z,33.59
2022-07-30T17:54:06.368Z,33.47
2022-07-30T17:59:13.723Z,33.23
2022-07-30T18:04:16.348Z,32.88
2022-07-30T18:09:18.736Z,32.93
2022-07-30T18:14:21.221Z,32.83
2022-07-30T18:19:27.399Z,32.75
2022-07-30T18:24:30.090Z,32.61
2022-07-30T18:29:32.520Z,32.60
2022-07-30T18:34:37.317Z,32.09
2022-07-30T18:39:42.045Z,31.49
2022-07-30T18:44:44.572Z,31.11
2022-07-30T18:49:47.082Z,32.01
2022-07-30T18:54:49.900Z,31.83
2022-07-30T18:59:52.536Z,31.67
2022-07-30T19:04:56.238Z,31.70
2022-07-30T19:09:59.082Z,31.66
2022-07-30T19:15:01.701Z,31.49
2022-07-30T19:20:06.044Z,31.30
2022-07-30T19:25:08.951Z,31.17
2022-07-30T19:30:11.890Z,31.17
2022-07-30T19:35:14.650Z,30.98
2022-07-30T19:40:17.310Z,31.01
2022-07-30T19:45:20.961Z,30.95
2022-07-30T19:50:27.227Z,30.92
2022-07-30T19:55:34.895Z,30.87
2022-07-30T20:00:38.261Z,30.89
2022-07-30T20:11:07.530Z,30.26
2022-07-30T20:16:12.634Z,30.62
2022-07-30T20:21:16.607Z,30.30
2022-07-30T20:26:26.160Z,30.16
2022-07-30T20:31:31.623Z,30.34
2022-07-30T20:36:35.739Z,30.33
2022-07-30T20:41:39.515Z,30.20
2022-07-30T20:46:43.716Z,30.14
2022-07-30T20:51:50.315Z,30.20
2022-07-30T20:56:53.773Z,30.13
2022-07-30T21:01:57.056Z,29.59
2022-07-30T21:06:59.770Z,29.76
2022-07-30T21:12:04.398Z,30.02
2022-07-30T21:17:07.016Z,30.05
2022-07-30T21:22:13.173Z,29.69
2022-07-30T21:27:15.870Z,29.50
2022-07-30T21:32:20.382Z,29.42
2022-07-30T21:37:36.531Z,29.32
2022-07-30T21:42:48.511Z,29.66
2022-07-30T21:47:54.022Z,29.41
2022-07-30T21:52:57.242Z,29.55
2022-07-30T21:58:01.073Z,29.60
2022-07-30T22:03:03.886Z,29.20
2022-07-30T22:08:27.743Z,29.28
2022-07-30T22:13:35.014Z,29.33
2022-07-30T22:18:53.970Z,28.94
2022-07-30T22:23:59.827Z,28.73
2022-07-30T22:29:02.999Z,28.84
2022-07-30T22:34:11.359Z,28.83
2022-07-30T22:39:14.110Z,28.77
2022-07-30T22:44:16.490Z,28.28
2022-07-30T22:49:25.260Z,28.39
2022-07-30T22:54:41.310Z,28.53
2022-07-30T22:59:58.095Z,28.39
2022-07-30T23:05:03.185Z,28.16
2022-07-30T23:10:12.365Z,28.24
2022-07-30T23:12:17.216Z,30.73
2022-07-30T23:15:21.636Z,28.01
2022-07-30T23:20:25.471Z,28.11
2022-07-30T23:25:34.591Z,27.90
2022-07-30T23:30:41.486Z,27.69
2022-07-30T23:35:44.275Z,27.78
2022-07-30T23:40:46.872Z,27.80
2022-07-30T23:45:49.224Z,27.29
2022-07-30T23:50:51.757Z,27.32
2022-07-30T23:55:54.181Z,27.43
